Carbondale, IL

5:52 PM CST on February 12, 2016 (GMT -0600)
Carbondale City Hall | | Change Station
CLOSE
Current Station
Personal Weather Station
Location: Carbondale, IL
Elevation: 430 ft
Nearby Weather Stations

Elev 430 ft 37.73 °N, 89.22 °W | Updated 24 minutes ago

Partly Cloudy
Partly Cloudy
32.5 °F
Feels Like 25 °F
N
8.0
Wind Variable Wind from WNW
Gusts 15.0 mph

Today
High -- | Low -- °F
--% Chance of Precip.
Yesterday
High -- | Low -- °F
Precip. -- in
Pressure 30.36 in
Visibility 10.0 miles
Clouds Few 3400 ft
Windchill 25 °F
Dew Point 24 °F
Humidity 69%
Rainfall 0.07 in
Snow Depth Not available.
6:50 AM 5:32 PM
Waxing Crescent, 25% visible
METAR KMDH 122252Z AUTO 34016G21KT 10SM FEW034 01/M07 A3035 RMK AO2 SLP280 T00061067
Pressure 30.36 in
Visibility 10.0 miles
Clouds Few 3400 ft
Windchill 25 °F
Dew Point 24 °F
Humidity 69%
Rainfall 0.07 in
Snow Depth Not available.
6:50 AM 5:32 PM
Waxing Crescent, 25% visible
METAR KMDH 122252Z AUTO 34016G21KT 10SM FEW034 01/M07 A3035 RMK AO2 SLP280 T00061067

10-Day Weather Forecast

Almanac

Astronomy

Feb. 12, 2016 Rise Set
Actual Time
Civil Twilight
Nautical Twilight
Astronomical Twilight
Moon
Length of Visible Light
Length of Day
Tomorrow will be .
, % of the Moon is Illuminated

Today's Extremes

State Highs State Lows

Community

WunderPhotos

Upload Photos

1,892,437 photos uploaded!

WunderBlog® & News

Nearby

Air Quality

  Air Quality AQ Index Pollutant
Not available.

Snow Depth

Station Depth Elevation

Earthquake Activity

City Distance Mag. Time & Date
Minimum magnitude displayed is 2.5.

Coastal Water Temperatures

Place Temperature

Stations

Nearby Weather Stations

Station Location Temp. Windchill Dew Point Humidity Wind Precip. Elev Updated Type
                   

Watches & Warnings

There are currently no watches in effect.